This is the latest recevied weather packets stored in our database for station/object OE-11272. If no packets are shown the sender has not sent any weather packets the latest 10 day(s).
| Time | Temp. | Humidity | Pressure | Rain* | Wind** | Luminosity | Snow |
|---|---|---|---|---|---|---|---|
| 1787675123 | 20.56° C | 82% | 1011.7 hPa | 0 mm | - | 100 W/m² | - |
| 1787674297 | 21.11° C | 79% | 1011.7 hPa | 0 mm | - | 112 W/m² | - |
| 1787673924 | 21.11° C | 81% | 1011.9 hPa | 0 mm | - | 112 W/m² | - |
| 1787673324 | 21.11° C | 74% | 1011.9 hPa | 0 mm | - | 137 W/m² | - |
| 1787672497 | 21.11° C | 75% | 1011.8 hPa | 0 mm | - | 156 W/m² | - |
| 1787672124 | 21.11° C | 75% | 1011.6 hPa | 0 mm | - | 194 W/m² | - |
| 1787671524 | 21.11° C | 78% | 1011.8 hPa | 0 mm | - | 219 W/m² | - |
| 1787670697 | 21.11° C | 73% | 1011.8 hPa | 0 mm | - | 187 W/m² | - |
| 1787670322 | 21.11° C | 73% | 1011.9 hPa | 0 mm | - | 162 W/m² | - |
| 1787669724 | 21.11° C | 73% | 1011.5 hPa | 0 mm | - | 418 W/m² | - |
| 1787668897 | 21.67° C | 76% | 1011.6 hPa | 0 mm | - | 412 W/m² | - |
| 1787668524 | 21.11° C | 76% | 1011.7 hPa | 0 mm | - | 200 W/m² | - |
| 1787667923 | 21.11° C | 75% | 1011.7 hPa | 0 mm | - | 344 W/m² | - |
| 1787667097 | 21.67° C | 76% | 1011.3 hPa | 0 mm | - | 712 W/m² | - |
| 1787666724 | 21.11° C | 76% | 1011.4 hPa | 0 mm | - | 675 W/m² | - |
| 1787666124 | 20.56° C | 76% | 1011.7 hPa | 0 mm | - | 319 W/m² | - |
| 1787665297 | 20.56° C | 76% | 1011.8 hPa | 0 mm | - | 450 W/m² | - |
| 1787664924 | 19.44° C | 80% | 1011.9 hPa | 0 mm | - | 250 W/m² | - |
| 1787664324 | 20° C | 79% | 1012.1 hPa | 0 mm | - | 400 W/m² | - |
| 1787663497 | 20.56° C | 78% | 1012 hPa | 0 mm | - | 725 W/m² | - |
| 1787663124 | 19.44° C | 79% | 1011.9 hPa | 0 mm | - | 662 W/m² | - |
| 1787662524 | 19.44° C | 82% | 1012.2 hPa | 0.25 mm | - | 437 W/m² | - |
| 1787661696 | 19.44° C | 83% | 1012.3 hPa | 0.25 mm | - | 500 W/m² | - |
| 1787661324 | 18.89° C | 85% | 1012.5 hPa | 0.25 mm | - | 350 W/m² | - |
| 1787660724 | 18.89° C | 84% | 1012.6 hPa | 0.25 mm | - | 306 W/m² | - |
* Rain latest hour (hover to see other rain measurements)
** Current wind speed in m/s (hover to see current wind gust speed)